createdAt,value
2022-11-25T00:00:22.866Z,979.81
2022-11-25T00:01:22.865Z,979.82
2022-11-25T00:02:22.972Z,979.77
2022-11-25T00:03:22.878Z,979.78
2022-11-25T00:04:22.853Z,979.77
2022-11-25T00:05:22.817Z,979.73
2022-11-25T00:06:22.817Z,979.75
2022-11-25T00:07:22.967Z,979.79
2022-11-25T00:08:22.792Z,979.78
2022-11-25T00:09:22.784Z,979.82
2022-11-25T00:10:22.773Z,979.77
2022-11-25T00:11:22.773Z,979.80
2022-11-25T00:12:22.756Z,979.76
2022-11-25T00:13:22.752Z,979.76
2022-11-25T00:14:22.738Z,979.74
2022-11-25T00:15:22.730Z,979.76
2022-11-25T00:16:22.773Z,979.83
2022-11-25T00:17:22.715Z,979.78
2022-11-25T00:18:22.720Z,979.73
2022-11-25T00:19:22.690Z,979.71
2022-11-25T00:20:22.684Z,979.73
2022-11-25T00:21:22.695Z,979.74
2022-11-25T00:22:22.662Z,979.73
2022-11-25T00:23:22.651Z,979.74
2022-11-25T00:24:22.648Z,979.74
2022-11-25T00:25:22.637Z,979.71
2022-11-25T00:26:22.639Z,979.67
2022-11-25T00:27:22.622Z,979.64
2022-11-25T00:28:22.611Z,979.69
2022-11-25T00:29:22.599Z,979.67
2022-11-25T00:30:22.590Z,979.66
2022-11-25T00:31:22.619Z,979.73
2022-11-25T00:32:22.568Z,979.67
2022-11-25T00:33:22.561Z,979.66
2022-11-25T00:34:22.550Z,979.65
2022-11-25T00:35:22.540Z,979.60
2022-11-25T00:36:22.542Z,979.64
2022-11-25T00:37:22.525Z,979.59
2022-11-25T00:38:22.515Z,979.55
2022-11-25T00:39:22.503Z,979.62
2022-11-25T00:40:22.497Z,979.60
2022-11-25T00:41:22.494Z,979.61
2022-11-25T00:42:22.473Z,979.66
2022-11-25T00:43:22.464Z,979.60
2022-11-25T00:44:22.455Z,979.66
2022-11-25T00:45:22.463Z,979.57
2022-11-25T00:46:22.450Z,979.61
2022-11-25T00:47:22.430Z,979.61
2022-11-25T00:48:22.424Z,979.60
2022-11-25T00:49:22.412Z,979.64
2022-11-25T00:50:22.400Z,979.60
2022-11-25T00:51:22.407Z,979.64
2022-11-25T00:52:22.384Z,979.64
2022-11-25T00:53:22.374Z,979.65
2022-11-25T00:54:22.384Z,979.71
2022-11-25T00:55:22.351Z,979.71
2022-11-25T00:56:22.357Z,979.69
2022-11-25T00:57:22.337Z,979.67
2022-11-25T00:58:22.329Z,979.73
2022-11-25T00:59:22.320Z,979.67
2022-11-25T01:00:22.313Z,979.69
2022-11-25T01:01:22.404Z,979.72
2022-11-25T01:02:22.376Z,979.74
2022-11-25T01:03:22.285Z,979.66
2022-11-25T01:04:22.282Z,979.65
2022-11-25T01:05:22.270Z,979.71
2022-11-25T01:06:22.286Z,979.68
2022-11-25T01:07:22.319Z,979.67
2022-11-25T01:08:22.246Z,979.67
2022-11-25T01:09:22.235Z,979.68
2022-11-25T01:10:22.230Z,979.70
2022-11-25T01:11:22.228Z,979.74
2022-11-25T01:12:22.207Z,979.75
2022-11-25T01:13:22.201Z,979.68
2022-11-25T01:14:22.188Z,979.75
2022-11-25T01:15:22.196Z,979.76
2022-11-25T01:16:22.244Z,979.75
2022-11-25T01:17:22.164Z,979.84
2022-11-25T01:18:22.156Z,979.78
2022-11-25T01:19:22.155Z,979.76
2022-11-25T01:20:22.138Z,979.72
2022-11-25T01:21:22.143Z,979.76
2022-11-25T01:22:22.217Z,979.81
2022-11-25T01:23:22.137Z,979.80
2022-11-25T01:24:23.942Z,979.75
2022-11-25T01:25:22.095Z,979.80
2022-11-25T01:26:22.095Z,979.82
2022-11-25T01:27:22.077Z,979.75
2022-11-25T01:28:22.063Z,979.77
2022-11-25T01:29:22.063Z,979.77
2022-11-25T01:30:22.060Z,979.75
2022-11-25T01:31:22.110Z,979.77
2022-11-25T01:32:22.037Z,979.75
2022-11-25T01:33:22.026Z,979.79
2022-11-25T01:34:22.014Z,979.78
2022-11-25T01:35:22.006Z,979.80
2022-11-25T01:36:22.008Z,979.79
2022-11-25T01:37:21.991Z,979.79
2022-11-25T01:38:21.980Z,979.83
2022-11-25T01:39:24.465Z,979.78
2022-11-25T01:40:22.961Z,979.82
2022-11-25T01:41:21.975Z,979.82
2022-11-25T01:42:21.948Z,979.74
2022-11-25T01:43:21.937Z,979.77
2022-11-25T01:44:21.933Z,979.77
2022-11-25T01:45:21.996Z,979.71
2022-11-25T01:46:21.999Z,979.77
2022-11-25T01:47:21.903Z,979.78
2022-11-25T01:48:21.899Z,979.79
2022-11-25T01:49:21.889Z,979.79
2022-11-25T01:50:21.880Z,979.78
2022-11-25T01:51:21.879Z,979.80
2022-11-25T01:52:21.863Z,979.74
2022-11-25T01:53:21.860Z,979.77
2022-11-25T01:54:21.847Z,979.77
2022-11-25T01:55:21.845Z,979.63
2022-11-25T01:56:21.841Z,979.73
2022-11-25T01:57:21.828Z,979.58
2022-11-25T01:58:21.816Z,979.62
2022-11-25T01:59:21.802Z,979.56
2022-11-25T02:00:21.799Z,979.73
2022-11-25T02:01:21.972Z,979.70
2022-11-25T02:02:21.821Z,979.59
2022-11-25T02:03:21.796Z,979.64
2022-11-25T02:04:21.760Z,979.61
2022-11-25T02:05:21.746Z,979.59
2022-11-25T02:06:21.753Z,979.55
2022-11-25T02:07:21.768Z,979.54
2022-11-25T02:08:21.727Z,979.58
2022-11-25T02:09:21.717Z,979.55
2022-11-25T02:10:21.703Z,979.55
2022-11-25T02:11:21.706Z,979.57
2022-11-25T02:12:21.693Z,979.59
2022-11-25T02:13:21.679Z,979.52
2022-11-25T02:14:21.670Z,979.57
2022-11-25T02:15:21.659Z,979.60
2022-11-25T02:16:21.701Z,979.67
2022-11-25T02:17:21.645Z,979.60
2022-11-25T02:18:21.636Z,979.61
2022-11-25T02:19:21.628Z,979.60
2022-11-25T02:20:21.619Z,979.54
2022-11-25T02:21:21.621Z,979.60
2022-11-25T02:22:21.613Z,979.59
2022-11-25T02:23:21.592Z,979.54
2022-11-25T02:24:21.579Z,979.56
2022-11-25T02:25:21.571Z,979.55
2022-11-25T02:26:21.578Z,979.58
2022-11-25T02:27:21.554Z,979.55
2022-11-25T02:28:21.547Z,979.57
2022-11-25T02:29:21.536Z,979.55
2022-11-25T02:30:21.531Z,979.57
2022-11-25T02:31:21.564Z,979.53
2022-11-25T02:32:21.511Z,979.57
2022-11-25T02:33:21.504Z,979.52
2022-11-25T02:34:21.490Z,979.53
2022-11-25T02:35:21.487Z,979.49
2022-11-25T02:36:21.493Z,979.49
2022-11-25T02:37:21.467Z,979.54
2022-11-25T02:38:21.464Z,979.50
2022-11-25T02:39:21.452Z,979.48
2022-11-25T02:40:21.440Z,979.49
2022-11-25T02:41:21.454Z,979.44
2022-11-25T02:42:21.425Z,979.47
2022-11-25T02:43:21.412Z,979.41
2022-11-25T02:44:21.406Z,979.45
2022-11-25T02:45:21.553Z,979.49
2022-11-25T02:46:22.664Z,979.42
2022-11-25T02:47:22.378Z,979.44
2022-11-25T02:48:30.204Z,979.39
2022-11-25T02:49:22.351Z,979.34
2022-11-25T02:50:21.349Z,979.34
2022-11-25T02:51:21.344Z,979.27
2022-11-25T02:52:21.329Z,979.33
2022-11-25T02:53:21.328Z,979.33
2022-11-25T02:54:21.311Z,979.33
2022-11-25T02:55:21.308Z,979.32
2022-11-25T02:56:21.302Z,979.38
2022-11-25T02:57:21.286Z,979.33
2022-11-25T02:58:21.276Z,979.30
2022-11-25T02:59:21.268Z,979.37
2022-11-25T03:00:21.256Z,979.39
2022-11-25T03:01:21.295Z,979.40
2022-11-25T03:02:21.313Z,979.38
2022-11-25T03:03:21.226Z,979.41
2022-11-25T03:04:21.222Z,979.35
2022-11-25T03:05:21.214Z,979.36
2022-11-25T03:06:21.215Z,979.37
2022-11-25T03:07:21.279Z,979.37
2022-11-25T03:08:21.185Z,979.38
2022-11-25T03:09:21.179Z,979.41
2022-11-25T03:10:21.167Z,979.41
2022-11-25T03:11:21.166Z,979.39
2022-11-25T03:12:21.158Z,979.36
2022-11-25T03:13:21.138Z,979.36
2022-11-25T03:14:21.129Z,979.32
2022-11-25T03:15:21.122Z,979.35
2022-11-25T03:16:21.154Z,979.37
2022-11-25T03:17:21.099Z,979.38
2022-11-25T03:18:21.094Z,979.35
2022-11-25T03:19:21.081Z,979.37
2022-11-25T03:20:21.105Z,979.32
2022-11-25T03:21:21.092Z,979.46
2022-11-25T03:22:21.072Z,979.41
2022-11-25T03:23:21.055Z,979.42
2022-11-25T03:24:21.042Z,979.43
2022-11-25T03:25:21.042Z,979.45
2022-11-25T03:26:21.034Z,979.42
2022-11-25T03:27:21.014Z,979.40
2022-11-25T03:28:21.005Z,979.42
2022-11-25T03:29:20.995Z,979.39
2022-11-25T03:30:20.984Z,979.37
2022-11-25T03:31:21.033Z,979.40
2022-11-25T03:32:21.970Z,979.43
2022-11-25T03:33:20.961Z,979.43
2022-11-25T03:34:20.956Z,979.43
2022-11-25T03:35:20.938Z,979.40
2022-11-25T03:36:20.947Z,979.41
2022-11-25T03:37:21.001Z,979.34
2022-11-25T03:38:20.922Z,979.38
2022-11-25T03:39:20.912Z,979.42
2022-11-25T03:40:20.903Z,979.36
2022-11-25T03:41:20.906Z,979.38
2022-11-25T03:42:20.882Z,979.44
2022-11-25T03:43:20.878Z,979.41
2022-11-25T03:44:20.869Z,979.38
2022-11-25T03:45:20.864Z,979.40
2022-11-25T03:46:20.916Z,979.37
2022-11-25T03:47:52.744Z,979.40
2022-11-25T03:48:20.859Z,979.39
2022-11-25T03:49:20.823Z,979.34
2022-11-25T03:50:20.813Z,979.42
2022-11-25T03:51:20.822Z,979.42
2022-11-25T03:52:20.801Z,979.38
2022-11-25T03:53:20.790Z,979.43
2022-11-25T03:54:20.779Z,979.47
2022-11-25T03:55:20.772Z,979.41
2022-11-25T03:56:20.762Z,979.38
2022-11-25T03:57:20.763Z,979.37
2022-11-25T03:58:20.747Z,979.43
2022-11-25T03:59:20.736Z,979.39
2022-11-25T04:00:20.730Z,979.38
2022-11-25T04:01:20.788Z,979.42
2022-11-25T04:02:20.763Z,979.41
2022-11-25T04:03:20.698Z,979.45
2022-11-25T04:04:20.691Z,979.40
2022-11-25T04:05:20.686Z,979.40
2022-11-25T04:06:20.677Z,979.42
2022-11-25T04:07:20.723Z,979.40
2022-11-25T04:08:20.658Z,979.44
2022-11-25T04:09:20.649Z,979.42
2022-11-25T04:10:20.645Z,979.44
2022-11-25T04:11:20.627Z,979.48
2022-11-25T04:12:20.638Z,979.40
2022-11-25T04:13:20.624Z,979.48
2022-11-25T04:14:20.604Z,979.51
2022-11-25T04:15:20.598Z,979.53
2022-11-25T04:16:20.632Z,979.52
2022-11-25T04:17:20.590Z,979.51
2022-11-25T04:18:20.572Z,979.51
2022-11-25T04:19:20.562Z,979.53
2022-11-25T04:20:20.543Z,979.55
2022-11-25T04:21:21.557Z,979.45
2022-11-25T04:22:20.552Z,979.48
2022-11-25T04:23:20.537Z,979.47
2022-11-25T04:24:20.519Z,979.55
2022-11-25T04:25:20.511Z,979.49
2022-11-25T04:26:20.504Z,979.49
2022-11-25T04:27:20.713Z,979.48
2022-11-25T04:28:21.487Z,979.53
2022-11-25T04:29:20.481Z,979.47
2022-11-25T04:30:20.471Z,979.49
2022-11-25T04:31:20.512Z,979.40
2022-11-25T04:32:20.467Z,979.46
2022-11-25T04:33:20.445Z,979.45
2022-11-25T04:34:20.435Z,979.47
2022-11-25T04:35:20.424Z,979.48
2022-11-25T04:36:20.416Z,979.53
2022-11-25T04:37:20.421Z,979.56
2022-11-25T04:38:20.399Z,979.52
2022-11-25T04:39:20.389Z,979.54
2022-11-25T04:40:20.382Z,979.50
2022-11-25T04:41:20.378Z,979.48
2022-11-25T04:42:20.373Z,979.45
2022-11-25T04:43:20.353Z,979.45
2022-11-25T04:44:20.345Z,979.45
2022-11-25T04:45:23.397Z,979.45
2022-11-25T04:46:21.429Z,979.48
2022-11-25T04:47:20.323Z,979.52
2022-11-25T04:48:21.310Z,979.51
2022-11-25T04:49:20.305Z,979.50
2022-11-25T04:50:20.293Z,979.51
2022-11-25T04:51:20.285Z,979.47
2022-11-25T04:52:20.289Z,979.51
2022-11-25T04:53:20.266Z,979.50
2022-11-25T04:54:20.261Z,979.53
2022-11-25T04:55:20.252Z,979.54
2022-11-25T04:56:20.242Z,979.60
2022-11-25T04:57:20.245Z,979.60
2022-11-25T04:58:20.223Z,979.56
2022-11-25T04:59:20.218Z,979.61
2022-11-25T05:00:20.213Z,979.58
2022-11-25T05:01:20.253Z,979.55
2022-11-25T05:02:20.264Z,979.55
2022-11-25T05:03:20.190Z,979.59
2022-11-25T05:04:20.174Z,979.55
2022-11-25T05:05:20.168Z,979.54
2022-11-25T05:06:20.155Z,979.67
2022-11-25T05:07:20.209Z,979.61
2022-11-25T05:08:20.141Z,979.66
2022-11-25T05:09:20.129Z,979.69
2022-11-25T05:10:20.117Z,979.60
2022-11-25T05:11:20.113Z,979.63
2022-11-25T05:12:20.121Z,979.67
2022-11-25T05:13:20.097Z,979.59
2022-11-25T05:14:20.093Z,979.57
2022-11-25T05:15:20.082Z,979.62
2022-11-25T05:16:20.096Z,979.61
2022-11-25T05:17:20.074Z,979.66
2022-11-25T05:18:20.055Z,979.64
2022-11-25T05:19:20.063Z,979.58
2022-11-25T05:20:20.043Z,979.63
2022-11-25T05:21:20.031Z,979.59
2022-11-25T05:22:20.034Z,979.57
2022-11-25T05:23:20.016Z,979.62
2022-11-25T05:24:20.004Z,979.61
2022-11-25T05:25:19.996Z,979.61
2022-11-25T05:26:19.990Z,979.63
2022-11-25T05:27:19.990Z,979.59
2022-11-25T05:28:19.967Z,979.67
2022-11-25T05:29:19.960Z,979.61
2022-11-25T05:30:19.951Z,979.61
2022-11-25T05:31:20.027Z,979.61
2022-11-25T05:32:19.946Z,979.56
2022-11-25T05:33:19.928Z,979.52
2022-11-25T05:34:19.921Z,979.50
2022-11-25T05:35:19.904Z,979.57
2022-11-25T05:36:19.900Z,979.57
2022-11-25T05:37:24.100Z,979.51
2022-11-25T05:38:20.883Z,979.51
2022-11-25T05:39:19.874Z,979.49
2022-11-25T05:40:19.863Z,979.48
2022-11-25T05:41:19.856Z,979.55
2022-11-25T05:42:19.855Z,979.52
2022-11-25T05:43:19.837Z,979.46
2022-11-25T05:44:22.931Z,979.55
2022-11-25T05:45:20.821Z,979.52
2022-11-25T05:46:19.830Z,979.53
2022-11-25T05:47:19.827Z,979.58
2022-11-25T05:48:19.793Z,979.58
2022-11-25T05:49:19.787Z,979.53
2022-11-25T05:50:19.776Z,979.54
2022-11-25T05:51:19.861Z,979.58
2022-11-25T05:52:19.771Z,979.55
2022-11-25T05:53:19.753Z,979.56
2022-11-25T05:54:19.744Z,979.57
2022-11-25T05:55:19.733Z,979.53
2022-11-25T05:56:19.725Z,979.59
2022-11-25T05:57:19.728Z,979.50
2022-11-25T05:58:19.715Z,979.59
2022-11-25T05:59:19.698Z,979.57
2022-11-25T06:00:23.560Z,979.57
2022-11-25T06:01:21.677Z,979.57
2022-11-25T06:02:19.701Z,979.60
2022-11-25T06:03:19.728Z,979.61
2022-11-25T06:04:19.652Z,979.59
2022-11-25T06:05:19.645Z,979.55
2022-11-25T06:06:19.636Z,979.59
2022-11-25T06:07:19.720Z,979.56
2022-11-25T06:08:19.616Z,979.55
2022-11-25T06:09:19.609Z,979.53
2022-11-25T06:10:19.601Z,979.55
2022-11-25T06:11:19.590Z,979.53
2022-11-25T06:12:19.594Z,979.52
2022-11-25T06:13:19.573Z,979.55
2022-11-25T06:14:19.563Z,979.47
2022-11-25T06:15:19.557Z,979.49
2022-11-25T06:16:19.605Z,979.44
2022-11-25T06:17:19.537Z,979.45
2022-11-25T06:18:19.538Z,979.54
2022-11-25T06:19:19.524Z,979.56
2022-11-25T06:20:19.510Z,979.58
2022-11-25T06:21:19.504Z,979.59
2022-11-25T06:22:19.567Z,979.52
2022-11-25T06:23:19.499Z,979.60
2022-11-25T06:24:19.477Z,979.56
2022-11-25T06:25:19.462Z,979.56
2022-11-25T06:26:20.463Z,979.63
2022-11-25T06:27:19.452Z,979.58
2022-11-25T06:28:19.455Z,979.56
2022-11-25T06:29:19.436Z,979.56
2022-11-25T06:30:19.431Z,979.57
2022-11-25T06:31:19.461Z,979.59
2022-11-25T06:32:19.519Z,979.55
2022-11-25T06:33:19.414Z,979.55
2022-11-25T06:34:19.402Z,979.52
2022-11-25T06:35:19.382Z,979.53
2022-11-25T06:36:19.374Z,979.53
2022-11-25T06:37:19.365Z,979.55
2022-11-25T06:38:19.372Z,979.48
2022-11-25T06:39:19.345Z,979.53
2022-11-25T06:40:19.336Z,979.55
2022-11-25T06:41:19.330Z,979.52
2022-11-25T06:42:19.320Z,979.57
2022-11-25T06:43:19.324Z,979.57
2022-11-25T06:44:19.309Z,979.59
2022-11-25T06:45:19.299Z,979.65
2022-11-25T06:46:24.545Z,979.67
2022-11-25T06:47:21.277Z,979.68
2022-11-25T06:48:19.280Z,979.72
2022-11-25T06:49:19.289Z,979.70
2022-11-25T06:50:19.252Z,979.71
2022-11-25T06:51:19.244Z,979.68
2022-11-25T06:52:19.241Z,979.61
2022-11-25T06:53:23.917Z,979.66
2022-11-25T06:54:21.220Z,979.63
2022-11-25T06:55:19.208Z,979.63
2022-11-25T06:56:19.202Z,979.62
2022-11-25T06:57:19.193Z,979.68
2022-11-25T06:58:34.950Z,979.65
2022-11-25T06:59:21.176Z,979.67
2022-11-25T07:00:19.170Z,979.54
2022-11-25T07:01:19.214Z,979.64
2022-11-25T07:02:19.179Z,979.58
2022-11-25T07:03:19.185Z,979.68
2022-11-25T07:04:19.167Z,979.70
2022-11-25T07:05:19.116Z,979.65
2022-11-25T07:06:19.110Z,979.63
2022-11-25T07:07:19.182Z,979.68
2022-11-25T07:08:19.121Z,979.71
2022-11-25T07:09:19.102Z,979.74
2022-11-25T07:10:19.075Z,979.73
2022-11-25T07:11:19.068Z,979.77
2022-11-25T07:12:19.057Z,979.84
2022-11-25T07:13:19.060Z,979.80
2022-11-25T07:14:19.087Z,979.84
2022-11-25T07:15:19.031Z,979.83
2022-11-25T07:16:19.082Z,979.86
2022-11-25T07:17:19.016Z,979.87
2022-11-25T07:18:19.004Z,979.80
2022-11-25T07:19:19.992Z,979.84
2022-11-25T07:20:18.985Z,979.78
2022-11-25T07:21:18.976Z,979.79
2022-11-25T07:22:18.964Z,979.79
2022-11-25T07:23:18.963Z,979.81
2022-11-25T07:24:18.948Z,979.78
2022-11-25T07:25:18.936Z,979.78
2022-11-25T07:26:18.927Z,979.85
2022-11-25T07:27:18.921Z,979.83
2022-11-25T07:28:18.922Z,979.88
2022-11-25T07:29:49.968Z,979.93
2022-11-25T07:31:23.930Z,979.91
2022-11-25T07:32:19.875Z,979.93
2022-11-25T07:33:19.096Z,979.95
2022-11-25T07:34:20.177Z,980.00
2022-11-25T07:35:18.849Z,980.01
2022-11-25T07:36:18.842Z,980.02
2022-11-25T07:37:18.827Z,980.03
2022-11-25T07:38:18.830Z,980.09
2022-11-25T07:39:18.812Z,980.03
2022-11-25T07:40:18.802Z,980.08
2022-11-25T07:41:18.789Z,980.10
2022-11-25T07:42:18.783Z,980.08
2022-11-25T07:43:18.784Z,980.12
2022-11-25T07:44:18.762Z,980.16
2022-11-25T07:45:18.758Z,980.17
2022-11-25T07:46:23.443Z,980.16
2022-11-25T07:47:20.737Z,980.19
2022-11-25T07:48:18.739Z,980.19
2022-11-25T07:49:18.721Z,980.20
2022-11-25T07:50:18.714Z,980.22
2022-11-25T07:51:18.702Z,980.26
2022-11-25T07:52:18.696Z,980.32
2022-11-25T07:53:18.697Z,980.33
2022-11-25T07:54:18.684Z,980.27
2022-11-25T07:55:18.671Z,980.32
2022-11-25T07:56:18.657Z,980.30
2022-11-25T07:57:18.651Z,980.38
2022-11-25T07:58:18.654Z,980.30
2022-11-25T07:59:18.634Z,980.27
2022-11-25T08:00:18.624Z,980.28
2022-11-25T08:01:18.680Z,980.24
2022-11-25T08:02:18.609Z,980.25
2022-11-25T08:03:18.631Z,980.21
2022-11-25T08:04:20.707Z,980.20
2022-11-25T08:05:19.581Z,980.25
2022-11-25T08:06:18.568Z,980.24
2022-11-25T08:07:18.655Z,980.29
2022-11-25T08:08:18.567Z,980.25
2022-11-25T08:09:18.543Z,980.18
2022-11-25T08:10:18.547Z,980.22
2022-11-25T08:11:18.545Z,980.13
2022-11-25T08:12:18.513Z,980.23
2022-11-25T08:13:18.513Z,980.15
2022-11-25T08:14:18.515Z,980.22
2022-11-25T08:15:18.506Z,980.25
2022-11-25T08:16:18.529Z,980.21
2022-11-25T08:17:18.511Z,980.22
2022-11-25T08:18:18.475Z,980.20
2022-11-25T08:19:18.458Z,980.22
2022-11-25T08:20:18.449Z,980.20
2022-11-25T08:21:18.442Z,980.22
2022-11-25T08:22:18.431Z,980.24
2022-11-25T08:23:18.432Z,980.17
2022-11-25T08:24:18.417Z,980.20
2022-11-25T08:25:18.402Z,980.23
2022-11-25T08:26:18.393Z,980.23
2022-11-25T08:27:18.391Z,980.23
2022-11-25T08:28:18.414Z,980.22
2022-11-25T08:29:18.371Z,980.19
2022-11-25T08:30:18.366Z,980.20
2022-11-25T08:31:18.443Z,980.22
2022-11-25T08:32:18.343Z,980.21
2022-11-25T08:33:18.345Z,980.20
2022-11-25T08:34:18.334Z,980.21
2022-11-25T08:35:18.318Z,980.24
2022-11-25T08:36:18.312Z,980.24
2022-11-25T08:37:18.299Z,980.26
2022-11-25T08:38:18.304Z,980.21
2022-11-25T08:40:20.271Z,980.27
2022-11-25T08:41:18.270Z,980.31
2022-11-25T08:42:18.254Z,980.31
2022-11-25T08:43:18.261Z,980.35
2022-11-25T08:44:18.242Z,980.41
2022-11-25T08:45:18.233Z,980.42
2022-11-25T08:46:18.318Z,980.38
2022-11-25T08:47:18.216Z,980.35
2022-11-25T08:48:18.216Z,980.39
2022-11-25T08:49:18.216Z,980.41
2022-11-25T08:50:18.185Z,980.42
2022-11-25T08:51:18.225Z,980.43
2022-11-25T08:52:18.194Z,980.45
2022-11-25T08:53:18.173Z,980.42
2022-11-25T08:54:18.157Z,980.41
2022-11-25T08:55:18.160Z,980.37
2022-11-25T08:56:21.582Z,980.40
2022-11-25T08:57:20.121Z,980.40
2022-11-25T08:58:18.124Z,980.46
2022-11-25T08:59:18.111Z,980.36
2022-11-25T09:00:18.097Z,980.41
2022-11-25T09:01:18.136Z,980.43
2022-11-25T09:02:18.166Z,980.42
2022-11-25T09:03:18.148Z,980.45
2022-11-25T09:04:18.056Z,980.52
2022-11-25T09:05:18.048Z,980.49
2022-11-25T09:06:18.036Z,980.45
2022-11-25T09:07:18.134Z,980.51
2022-11-25T09:08:18.196Z,980.47
2022-11-25T09:09:18.009Z,980.50
2022-11-25T09:10:18.002Z,980.48
2022-11-25T09:11:18.051Z,980.49
2022-11-25T09:12:17.982Z,980.54
2022-11-25T09:13:17.999Z,980.53
2022-11-25T09:14:18.006Z,980.50
2022-11-25T09:15:17.959Z,980.53
2022-11-25T09:16:17.999Z,980.56
2022-11-25T09:17:17.939Z,980.61
2022-11-25T09:18:17.941Z,980.52
2022-11-25T09:19:17.918Z,980.54
2022-11-25T09:20:17.907Z,980.56
2022-11-25T09:21:17.899Z,980.62
2022-11-25T09:22:17.896Z,980.66
2022-11-25T09:23:17.898Z,980.65
2022-11-25T09:24:17.871Z,980.64
2022-11-25T09:25:17.868Z,980.62
2022-11-25T09:26:17.855Z,980.63
2022-11-25T09:27:17.852Z,980.64
2022-11-25T09:28:17.835Z,980.67
2022-11-25T09:29:17.841Z,980.64
2022-11-25T09:30:17.828Z,980.64
2022-11-25T09:31:17.842Z,980.69
2022-11-25T09:32:17.800Z,980.71
2022-11-25T09:33:17.794Z,980.66
2022-11-25T09:34:17.791Z,980.74
2022-11-25T09:35:17.773Z,980.74
2022-11-25T09:36:17.764Z,980.77
2022-11-25T09:37:17.753Z,980.79
2022-11-25T09:38:17.747Z,980.75
2022-11-25T09:39:17.750Z,980.71
2022-11-25T09:40:17.811Z,980.77
2022-11-25T09:41:17.721Z,980.77
2022-11-25T09:42:17.786Z,980.78
2022-11-25T09:43:17.700Z,980.76
2022-11-25T09:44:17.706Z,980.80
2022-11-25T09:45:17.680Z,980.77
2022-11-25T09:46:17.748Z,980.79
2022-11-25T09:47:17.658Z,980.85
2022-11-25T09:48:49.568Z,980.77
2022-11-25T09:49:17.651Z,980.79
2022-11-25T09:50:17.651Z,980.73
2022-11-25T09:51:17.621Z,980.80
2022-11-25T09:52:17.611Z,980.77
2022-11-25T09:53:17.617Z,980.86
2022-11-25T09:54:17.711Z,980.83
2022-11-25T09:55:17.585Z,980.84
2022-11-25T09:56:17.574Z,980.77
2022-11-25T09:57:17.571Z,980.88
2022-11-25T09:58:17.571Z,980.84
2022-11-25T09:59:17.565Z,980.87
2022-11-25T10:00:17.537Z,980.83
2022-11-25T10:01:17.528Z,980.83
2022-11-25T10:02:17.583Z,980.81
2022-11-25T10:03:17.622Z,980.79
2022-11-25T10:04:17.512Z,980.86
2022-11-25T10:05:17.493Z,980.86
2022-11-25T10:06:17.522Z,980.91
2022-11-25T10:07:17.468Z,980.82
2022-11-25T10:08:17.460Z,980.88
2022-11-25T10:09:17.462Z,980.86
2022-11-25T10:10:17.439Z,980.88
2022-11-25T10:11:17.429Z,980.85
2022-11-25T10:12:17.419Z,980.94
2022-11-25T10:13:17.416Z,980.99
2022-11-25T10:14:17.416Z,980.92
2022-11-25T10:15:17.391Z,980.93
2022-11-25T10:16:17.427Z,980.95
2022-11-25T10:17:17.391Z,981.01
2022-11-25T10:18:17.396Z,981.02
2022-11-25T10:19:17.366Z,981.10
2022-11-25T10:20:17.349Z,981.10
2022-11-25T10:21:17.337Z,981.10
2022-11-25T10:22:17.327Z,981.11
2022-11-25T10:23:17.386Z,981.15
2022-11-25T10:24:17.320Z,981.15
2022-11-25T10:25:17.293Z,981.16
2022-11-25T10:26:17.287Z,981.14
2022-11-25T10:27:17.269Z,981.10
2022-11-25T10:28:18.267Z,981.10
2022-11-25T10:29:17.270Z,981.12
2022-11-25T10:30:17.249Z,981.04
2022-11-25T10:31:17.321Z,981.09
2022-11-25T10:32:17.228Z,981.04
2022-11-25T10:33:17.216Z,981.02
2022-11-25T10:34:17.216Z,981.13
2022-11-25T10:35:18.210Z,981.17
2022-11-25T10:36:17.202Z,981.10
2022-11-25T10:37:17.189Z,981.07
2022-11-25T10:38:19.145Z,981.12
2022-11-25T10:39:18.182Z,981.14
2022-11-25T10:40:17.151Z,981.16
2022-11-25T10:41:18.186Z,981.10
2022-11-25T10:42:17.153Z,981.07
2022-11-25T10:43:17.134Z,981.07
2022-11-25T10:44:17.139Z,981.04
2022-11-25T10:45:17.118Z,981.05
2022-11-25T10:46:17.202Z,981.07
2022-11-25T10:47:17.137Z,981.04
2022-11-25T10:48:18.089Z,981.15
2022-11-25T10:49:17.091Z,981.10
2022-11-25T10:50:17.102Z,981.13
2022-11-25T10:51:17.173Z,981.12
2022-11-25T10:52:17.050Z,981.11
2022-11-25T10:53:17.046Z,981.12
2022-11-25T10:54:17.049Z,981.10
2022-11-25T10:55:17.029Z,981.26
2022-11-25T10:56:17.015Z,981.14
2022-11-25T10:57:17.005Z,981.20
2022-11-25T10:58:16.998Z,981.19
2022-11-25T10:59:16.999Z,981.18
2022-11-25T11:00:17.631Z,981.20
2022-11-25T11:01:18.024Z,981.16
2022-11-25T11:02:17.052Z,981.17
2022-11-25T11:03:17.003Z,981.21
2022-11-25T11:04:16.960Z,981.18
2022-11-25T11:05:16.937Z,981.22
2022-11-25T11:06:16.933Z,981.24
2022-11-25T11:07:16.967Z,981.23
2022-11-25T11:08:17.017Z,981.20
2022-11-25T11:09:16.919Z,981.22
2022-11-25T11:10:16.968Z,981.17
2022-11-25T11:11:16.983Z,981.23
2022-11-25T11:12:16.879Z,981.20
2022-11-25T11:13:16.879Z,981.21
2022-11-25T11:14:17.014Z,981.29
2022-11-25T11:15:16.852Z,981.30
2022-11-25T11:16:16.930Z,981.24
2022-11-25T11:17:16.833Z,981.29
2022-11-25T11:18:16.921Z,981.29
2022-11-25T11:19:16.828Z,981.30
2022-11-25T11:20:16.822Z,981.26
2022-11-25T11:21:16.792Z,981.41
2022-11-25T11:22:16.787Z,981.31
2022-11-25T11:23:16.778Z,981.35
2022-11-25T11:24:16.777Z,981.36
2022-11-25T11:25:16.807Z,981.41
2022-11-25T11:26:16.750Z,981.43
2022-11-25T11:27:16.738Z,981.42
2022-11-25T11:28:16.732Z,981.40
2022-11-25T11:29:16.732Z,981.42
2022-11-25T11:30:16.720Z,981.41
2022-11-25T11:31:16.717Z,981.33
2022-11-25T11:32:16.693Z,981.36
2022-11-25T11:33:16.687Z,981.39
2022-11-25T11:34:16.685Z,981.36
2022-11-25T11:35:16.669Z,981.36
2022-11-25T11:36:16.656Z,981.39
2022-11-25T11:37:16.651Z,981.37
2022-11-25T11:38:16.627Z,981.34
2022-11-25T11:39:17.642Z,981.41
2022-11-25T11:40:16.622Z,981.39
2022-11-25T11:41:16.613Z,981.39
2022-11-25T11:42:16.608Z,981.42
2022-11-25T11:43:16.599Z,981.39
2022-11-25T11:44:16.642Z,981.41
2022-11-25T11:45:16.577Z,981.36
2022-11-25T11:46:16.628Z,981.40
2022-11-25T11:47:16.556Z,981.43
2022-11-25T11:48:16.550Z,981.43
2022-11-25T11:49:16.548Z,981.32
2022-11-25T11:50:16.527Z,981.32
2022-11-25T11:51:16.515Z,981.35
2022-11-25T11:52:16.506Z,981.33
2022-11-25T11:53:16.499Z,981.34
2022-11-25T11:54:16.492Z,981.38
2022-11-25T11:55:16.474Z,981.41
2022-11-25T11:56:34.816Z,981.43
2022-11-25T11:57:18.460Z,981.42
2022-11-25T11:58:16.451Z,981.45
2022-11-25T11:59:16.451Z,981.46
2022-11-25T12:00:16.497Z,981.49
2022-11-25T12:01:16.420Z,981.57
2022-11-25T12:02:16.451Z,981.50
2022-11-25T12:03:16.452Z,981.54
2022-11-25T12:04:16.406Z,981.52
2022-11-25T12:05:16.379Z,981.57
2022-11-25T12:06:16.457Z,981.59
2022-11-25T12:07:16.364Z,981.57
2022-11-25T12:08:16.359Z,981.56
2022-11-25T12:09:16.361Z,981.56
2022-11-25T12:10:16.332Z,981.57
2022-11-25T12:11:16.321Z,981.55
2022-11-25T12:12:16.318Z,981.57
2022-11-25T12:13:16.304Z,981.58
2022-11-25T12:14:16.292Z,981.55
2022-11-25T12:15:16.298Z,981.57
2022-11-25T12:16:16.329Z,981.54
2022-11-25T12:17:16.265Z,981.60
2022-11-25T12:18:16.259Z,981.60
2022-11-25T12:19:16.244Z,981.55
2022-11-25T12:20:16.245Z,981.53
2022-11-25T12:21:16.227Z,981.50
2022-11-25T12:22:16.218Z,981.51
2022-11-25T12:23:16.209Z,981.55
2022-11-25T12:24:16.201Z,981.53
2022-11-25T12:25:16.199Z,981.55
2022-11-25T12:26:16.194Z,981.55
2022-11-25T12:27:16.165Z,981.56
2022-11-25T12:28:16.168Z,981.55
2022-11-25T12:29:16.155Z,981.60
2022-11-25T12:30:16.151Z,981.62